sensor_id;sensor_type;location;lat;lon;timestamp;temperature;humidity
52867;DHT22;38739;53.324;6.862;2023-10-13T00:00:35;13.50;99.90
52867;DHT22;38739;53.324;6.862;2023-10-13T00:03:08;13.40;99.90
52867;DHT22;38739;53.324;6.862;2023-10-13T00:05:44;13.50;99.90
52867;DHT22;38739;53.324;6.862;2023-10-13T00:08:10;13.50;99.90
52867;DHT22;38739;53.324;6.862;2023-10-13T00:10:36;13.50;99.90
52867;DHT22;38739;53.324;6.862;2023-10-13T00:13:02;13.50;99.90
52867;DHT22;38739;53.324;6.862;2023-10-13T00:15:47;13.50;99.90
52867;DHT22;38739;53.324;6.862;2023-10-13T00:18:27;13.60;99.90
52867;DHT22;38739;53.324;6.862;2023-10-13T00:21:02;13.60;99.90
52867;DHT22;38739;53.324;6.862;2023-10-13T00:23:40;13.60;99.90
52867;DHT22;38739;53.324;6.862;2023-10-13T00:26:22;13.70;99.90
52867;DHT22;38739;53.324;6.862;2023-10-13T00:28:57;13.70;99.90
52867;DHT22;38739;53.324;6.862;2023-10-13T00:31:39;13.70;99.90
52867;DHT22;38739;53.324;6.862;2023-10-13T00:34:11;13.80;99.90
52867;DHT22;38739;53.324;6.862;2023-10-13T00:36:41;13.80;99.90
52867;DHT22;38739;53.324;6.862;2023-10-13T00:39:25;13.90;99.90
52867;DHT22;38739;53.324;6.862;2023-10-13T00:41:54;13.80;99.90
52867;DHT22;38739;53.324;6.862;2023-10-13T00:44:32;13.90;99.90
52867;DHT22;38739;53.324;6.862;2023-10-13T00:47:08;13.90;99.90
52867;DHT22;38739;53.324;6.862;2023-10-13T00:49:36;14.00;99.90
52867;DHT22;38739;53.324;6.862;2023-10-13T00:52:06;14.00;99.90
52867;DHT22;38739;53.324;6.862;2023-10-13T00:54:37;14.10;99.90
52867;DHT22;38739;53.324;6.862;2023-10-13T00:57:03;14.10;99.90
52867;DHT22;38739;53.324;6.862;2023-10-13T00:59:33;14.10;99.90
52867;DHT22;38739;53.324;6.862;2023-10-13T01:02:02;14.10;99.90
52867;DHT22;38739;53.324;6.862;2023-10-13T01:04:48;14.20;99.90
52867;DHT22;38739;53.324;6.862;2023-10-13T01:07:14;14.20;99.90
52867;DHT22;38739;53.324;6.862;2023-10-13T01:09:44;14.20;99.90
52867;DHT22;38739;53.324;6.862;2023-10-13T01:12:12;14.30;99.90
52867;DHT22;38739;53.324;6.862;2023-10-13T01:14:38;14.30;99.90
52867;DHT22;38739;53.324;6.862;2023-10-13T01:17:04;14.30;99.90
52867;DHT22;38739;53.324;6.862;2023-10-13T01:19:30;14.30;99.90
52867;DHT22;38739;53.324;6.862;2023-10-13T01:22:04;14.40;99.90
52867;DHT22;38739;53.324;6.862;2023-10-13T01:24:32;14.40;99.90
52867;DHT22;38739;53.324;6.862;2023-10-13T01:27:03;14.40;99.90
52867;DHT22;38739;53.324;6.862;2023-10-13T01:29:40;14.50;99.90
52867;DHT22;38739;53.324;6.862;2023-10-13T01:32:06;14.50;99.90
52867;DHT22;38739;53.324;6.862;2023-10-13T01:34:31;14.60;99.90
52867;DHT22;38739;53.324;6.862;2023-10-13T01:36:59;14.60;99.90
52867;DHT22;38739;53.324;6.862;2023-10-13T01:39:31;14.60;99.90
52867;DHT22;38739;53.324;6.862;2023-10-13T01:41:57;14.60;99.90
52867;DHT22;38739;53.324;6.862;2023-10-13T01:44:26;14.70;99.90
52867;DHT22;38739;53.324;6.862;2023-10-13T01:46:54;14.70;99.90
52867;DHT22;38739;53.324;6.862;2023-10-13T01:49:20;14.80;99.90
52867;DHT22;38739;53.324;6.862;2023-10-13T01:51:48;14.80;99.90
52867;DHT22;38739;53.324;6.862;2023-10-13T01:54:14;14.80;99.90
52867;DHT22;38739;53.324;6.862;2023-10-13T01:56:41;14.90;99.90
52867;DHT22;38739;53.324;6.862;2023-10-13T01:59:11;14.90;99.90
52867;DHT22;38739;53.324;6.862;2023-10-13T02:01:37;14.90;99.90
52867;DHT22;38739;53.324;6.862;2023-10-13T02:04:03;14.90;99.90
52867;DHT22;38739;53.324;6.862;2023-10-13T02:06:30;15.00;99.90
52867;DHT22;38739;53.324;6.862;2023-10-13T02:09:03;15.00;99.90
52867;DHT22;38739;53.324;6.862;2023-10-13T02:11:39;15.00;99.90
52867;DHT22;38739;53.324;6.862;2023-10-13T02:14:05;15.00;99.90
52867;DHT22;38739;53.324;6.862;2023-10-13T02:16:30;15.10;99.90
52867;DHT22;38739;53.324;6.862;2023-10-13T02:18:59;15.10;99.90
52867;DHT22;38739;53.324;6.862;2023-10-13T02:21:35;15.00;99.90
52867;DHT22;38739;53.324;6.862;2023-10-13T02:24:08;15.10;99.90
52867;DHT22;38739;53.324;6.862;2023-10-13T02:26:44;15.10;99.90
52867;DHT22;38739;53.324;6.862;2023-10-13T02:29:11;15.10;99.90
52867;DHT22;38739;53.324;6.862;2023-10-13T02:31:40;15.10;99.90
52867;DHT22;38739;53.324;6.862;2023-10-13T02:34:06;15.20;99.90
52867;DHT22;38739;53.324;6.862;2023-10-13T02:36:37;15.20;99.90
52867;DHT22;38739;53.324;6.862;2023-10-13T02:39:04;15.20;99.90
52867;DHT22;38739;53.324;6.862;2023-10-13T02:41:34;15.20;99.90
52867;DHT22;38739;53.324;6.862;2023-10-13T02:44:03;15.20;99.90
52867;DHT22;38739;53.324;6.862;2023-10-13T02:46:33;15.20;99.90
52867;DHT22;38739;53.324;6.862;2023-10-13T02:49:04;15.20;99.90
52867;DHT22;38739;53.324;6.862;2023-10-13T02:51:37;15.30;99.90
52867;DHT22;38739;53.324;6.862;2023-10-13T02:54:06;15.30;99.90
52867;DHT22;38739;53.324;6.862;2023-10-13T02:56:39;15.30;99.90
52867;DHT22;38739;53.324;6.862;2023-10-13T02:59:15;15.30;99.90
52867;DHT22;38739;53.324;6.862;2023-10-13T03:01:41;15.40;99.90
52867;DHT22;38739;53.324;6.862;2023-10-13T03:04:07;15.40;99.90
52867;DHT22;38739;53.324;6.862;2023-10-13T03:06:38;15.40;99.90
52867;DHT22;38739;53.324;6.862;2023-10-13T03:09:08;15.50;99.90
52867;DHT22;38739;53.324;6.862;2023-10-13T03:11:45;15.50;99.90
52867;DHT22;38739;53.324;6.862;2023-10-13T03:14:23;15.50;99.90
52867;DHT22;38739;53.324;6.862;2023-10-13T03:16:54;15.50;99.90
52867;DHT22;38739;53.324;6.862;2023-10-13T03:19:20;15.50;99.90
52867;DHT22;38739;53.324;6.862;2023-10-13T03:21:47;15.50;99.90
52867;DHT22;38739;53.324;6.862;2023-10-13T03:24:31;15.50;99.90
52867;DHT22;38739;53.324;6.862;2023-10-13T03:27:03;15.60;99.90
52867;DHT22;38739;53.324;6.862;2023-10-13T03:29:39;15.60;99.90
52867;DHT22;38739;53.324;6.862;2023-10-13T03:32:12;15.60;99.90
52867;DHT22;38739;53.324;6.862;2023-10-13T03:34:46;15.60;99.90
52867;DHT22;38739;53.324;6.862;2023-10-13T03:37:19;15.60;99.90
52867;DHT22;38739;53.324;6.862;2023-10-13T03:40:06;15.60;99.90
52867;DHT22;38739;53.324;6.862;2023-10-13T03:42:41;15.60;99.90
52867;DHT22;38739;53.324;6.862;2023-10-13T03:45:07;15.60;99.90
52867;DHT22;38739;53.324;6.862;2023-10-13T03:47:36;15.60;99.90
52867;DHT22;38739;53.324;6.862;2023-10-13T03:50:05;15.60;99.90
52867;DHT22;38739;53.324;6.862;2023-10-13T03:52:41;15.70;99.90
52867;DHT22;38739;53.324;6.862;2023-10-13T03:55:07;15.70;99.90
52867;DHT22;38739;53.324;6.862;2023-10-13T03:57:33;15.70;99.90
52867;DHT22;38739;53.324;6.862;2023-10-13T04:00:07;15.70;99.90
52867;DHT22;38739;53.324;6.862;2023-10-13T04:02:45;15.70;99.90
52867;DHT22;38739;53.324;6.862;2023-10-13T04:05:18;15.70;99.90
52867;DHT22;38739;53.324;6.862;2023-10-13T04:08:04;15.80;99.90
52867;DHT22;38739;53.324;6.862;2023-10-13T04:10:48;15.80;99.90
52867;DHT22;38739;53.324;6.862;2023-10-13T04:13:17;15.80;99.90
52867;DHT22;38739;53.324;6.862;2023-10-13T04:16:01;15.80;99.90
52867;DHT22;38739;53.324;6.862;2023-10-13T04:18:45;15.80;99.90
52867;DHT22;38739;53.324;6.862;2023-10-13T04:21:20;15.80;99.90
52867;DHT22;38739;53.324;6.862;2023-10-13T04:24:21;15.80;99.90
52867;DHT22;38739;53.324;6.862;2023-10-13T04:27:05;15.80;99.90
52867;DHT22;38739;53.324;6.862;2023-10-13T04:29:38;15.80;99.90
52867;DHT22;38739;53.324;6.862;2023-10-13T04:32:24;15.80;99.90
52867;DHT22;38739;53.324;6.862;2023-10-13T04:35:05;15.80;99.90
52867;DHT22;38739;53.324;6.862;2023-10-13T04:37:40;15.80;99.90
52867;DHT22;38739;53.324;6.862;2023-10-13T04:40:24;15.80;99.90
52867;DHT22;38739;53.324;6.862;2023-10-13T04:42:54;15.80;99.90
52867;DHT22;38739;53.324;6.862;2023-10-13T04:45:23;15.90;99.90
52867;DHT22;38739;53.324;6.862;2023-10-13T04:48:01;15.90;99.90
52867;DHT22;38739;53.324;6.862;2023-10-13T04:50:49;15.80;99.90
52867;DHT22;38739;53.324;6.862;2023-10-13T04:53:37;15.90;99.90
52867;DHT22;38739;53.324;6.862;2023-10-13T04:56:23;15.90;99.90
52867;DHT22;38739;53.324;6.862;2023-10-13T04:59:15;15.90;99.90
52867;DHT22;38739;53.324;6.862;2023-10-13T05:01:44;15.90;99.90
52867;DHT22;38739;53.324;6.862;2023-10-13T05:04:35;15.90;99.90
52867;DHT22;38739;53.324;6.862;2023-10-13T05:07:05;15.90;99.90
52867;DHT22;38739;53.324;6.862;2023-10-13T05:10:05;15.90;99.90
52867;DHT22;38739;53.324;6.862;2023-10-13T05:12:49;15.90;99.90
52867;DHT22;38739;53.324;6.862;2023-10-13T05:15:33;15.90;99.90
52867;DHT22;38739;53.324;6.862;2023-10-13T05:18:17;16.00;99.90
52867;DHT22;38739;53.324;6.862;2023-10-13T05:21:01;16.00;99.90
52867;DHT22;38739;53.324;6.862;2023-10-13T05:23:47;16.00;99.90
52867;DHT22;38739;53.324;6.862;2023-10-13T05:26:31;15.90;99.90
52867;DHT22;38739;53.324;6.862;2023-10-13T05:29:15;16.00;99.90
52867;DHT22;38739;53.324;6.862;2023-10-13T05:31:59;16.00;99.90
52867;DHT22;38739;53.324;6.862;2023-10-13T05:34:43;15.90;99.90
52867;DHT22;38739;53.324;6.862;2023-10-13T05:37:28;16.00;99.90
52867;DHT22;38739;53.324;6.862;2023-10-13T05:40:12;15.90;99.90
52867;DHT22;38739;53.324;6.862;2023-10-13T05:42:56;15.90;99.90
52867;DHT22;38739;53.324;6.862;2023-10-13T05:45:40;15.90;99.90
52867;DHT22;38739;53.324;6.862;2023-10-13T05:48:25;15.90;99.90
52867;DHT22;38739;53.324;6.862;2023-10-13T05:51:08;15.90;99.90
52867;DHT22;38739;53.324;6.862;2023-10-13T05:53:52;15.90;99.90
52867;DHT22;38739;53.324;6.862;2023-10-13T05:56:36;16.00;99.90
52867;DHT22;38739;53.324;6.862;2023-10-13T05:59:20;15.90;99.90
52867;DHT22;38739;53.324;6.862;2023-10-13T06:02:05;15.90;99.90
52867;DHT22;38739;53.324;6.862;2023-10-13T06:04:49;15.90;99.90
52867;DHT22;38739;53.324;6.862;2023-10-13T06:07:33;15.90;99.90
52867;DHT22;38739;53.324;6.862;2023-10-13T06:10:18;15.90;99.90
52867;DHT22;38739;53.324;6.862;2023-10-13T06:13:02;15.90;99.90
52867;DHT22;38739;53.324;6.862;2023-10-13T06:15:46;15.90;99.90
52867;DHT22;38739;53.324;6.862;2023-10-13T06:18:30;15.90;99.90
52867;DHT22;38739;53.324;6.862;2023-10-13T06:21:15;15.80;99.90
52867;DHT22;38739;53.324;6.862;2023-10-13T06:23:59;15.80;99.90
52867;DHT22;38739;53.324;6.862;2023-10-13T06:26:43;15.80;99.90
52867;DHT22;38739;53.324;6.862;2023-10-13T06:29:30;15.80;99.90
52867;DHT22;38739;53.324;6.862;2023-10-13T06:31:56;15.80;99.90
52867;DHT22;38739;53.324;6.862;2023-10-13T06:34:23;15.80;99.90
52867;DHT22;38739;53.324;6.862;2023-10-13T06:37:04;15.80;99.90
52867;DHT22;38739;53.324;6.862;2023-10-13T06:39:48;15.80;99.90
52867;DHT22;38739;53.324;6.862;2023-10-13T06:42:14;15.80;99.90
52867;DHT22;38739;53.324;6.862;2023-10-13T06:44:42;15.70;99.90
52867;DHT22;38739;53.324;6.862;2023-10-13T06:47:11;15.70;99.90
52867;DHT22;38739;53.324;6.862;2023-10-13T06:49:39;15.70;99.90
52867;DHT22;38739;53.324;6.862;2023-10-13T06:52:07;15.70;99.90
52867;DHT22;38739;53.324;6.862;2023-10-13T06:54:33;15.70;99.90
52867;DHT22;38739;53.324;6.862;2023-10-13T06:57:00;15.80;99.90
52867;DHT22;38739;53.324;6.862;2023-10-13T06:59:29;15.70;99.90
52867;DHT22;38739;53.324;6.862;2023-10-13T07:02:01;15.80;99.90
52867;DHT22;38739;53.324;6.862;2023-10-13T07:04:31;15.80;99.90
52867;DHT22;38739;53.324;6.862;2023-10-13T07:06:56;15.80;99.90
52867;DHT22;38739;53.324;6.862;2023-10-13T07:09:22;15.80;99.90
52867;DHT22;38739;53.324;6.862;2023-10-13T07:12:14;15.80;99.90
52867;DHT22;38739;53.324;6.862;2023-10-13T07:14:48;15.80;99.90
52867;DHT22;38739;53.324;6.862;2023-10-13T07:17:37;15.80;99.90
52867;DHT22;38739;53.324;6.862;2023-10-13T07:20:07;15.90;99.90
52867;DHT22;38739;53.324;6.862;2023-10-13T07:22:50;15.90;99.90
52867;DHT22;38739;53.324;6.862;2023-10-13T07:25:42;15.90;99.90
52867;DHT22;38739;53.324;6.862;2023-10-13T07:28:09;16.00;99.90
52867;DHT22;38739;53.324;6.862;2023-10-13T07:30:36;16.00;99.90
52867;DHT22;38739;53.324;6.862;2023-10-13T07:33:26;16.00;99.90
52867;DHT22;38739;53.324;6.862;2023-10-13T07:36:07;16.00;99.90
52867;DHT22;38739;53.324;6.862;2023-10-13T07:38:42;16.10;99.90
52867;DHT22;38739;53.324;6.862;2023-10-13T07:41:09;16.10;99.90
52867;DHT22;38739;53.324;6.862;2023-10-13T07:43:38;16.10;99.90
52867;DHT22;38739;53.324;6.862;2023-10-13T07:46:03;16.10;99.90
52867;DHT22;38739;53.324;6.862;2023-10-13T07:48:36;16.10;99.90
52867;DHT22;38739;53.324;6.862;2023-10-13T07:51:05;16.10;99.90
52867;DHT22;38739;53.324;6.862;2023-10-13T07:53:37;16.10;99.90
52867;DHT22;38739;53.324;6.862;2023-10-13T07:56:09;16.20;99.90
52867;DHT22;38739;53.324;6.862;2023-10-13T07:58:38;16.20;99.90
52867;DHT22;38739;53.324;6.862;2023-10-13T08:01:18;16.20;99.90
52867;DHT22;38739;53.324;6.862;2023-10-13T08:03:45;16.20;99.90
52867;DHT22;38739;53.324;6.862;2023-10-13T08:06:17;16.20;99.90
52867;DHT22;38739;53.324;6.862;2023-10-13T08:08:44;16.20;99.90
52867;DHT22;38739;53.324;6.862;2023-10-13T08:11:13;16.20;99.90
52867;DHT22;38739;53.324;6.862;2023-10-13T08:13:59;16.10;99.90
52867;DHT22;38739;53.324;6.862;2023-10-13T08:16:29;16.10;99.90
52867;DHT22;38739;53.324;6.862;2023-10-13T08:19:17;16.10;99.90
52867;DHT22;38739;53.324;6.862;2023-10-13T08:21:44;16.10;99.90
52867;DHT22;38739;53.324;6.862;2023-10-13T08:24:23;16.10;99.90
52867;DHT22;38739;53.324;6.862;2023-10-13T08:27:05;16.10;99.90
52867;DHT22;38739;53.324;6.862;2023-10-13T08:29:47;16.10;99.90
52867;DHT22;38739;53.324;6.862;2023-10-13T08:32:25;16.10;99.90
52867;DHT22;38739;53.324;6.862;2023-10-13T08:34:57;16.10;99.90
52867;DHT22;38739;53.324;6.862;2023-10-13T08:37:23;16.10;99.90
52867;DHT22;38739;53.324;6.862;2023-10-13T08:39:49;16.10;99.90
52867;DHT22;38739;53.324;6.862;2023-10-13T08:42:45;16.10;99.90
52867;DHT22;38739;53.324;6.862;2023-10-13T08:45:12;16.20;99.90
52867;DHT22;38739;53.324;6.862;2023-10-13T08:47:59;16.20;99.90
52867;DHT22;38739;53.324;6.862;2023-10-13T08:50:35;16.20;99.90
52867;DHT22;38739;53.324;6.862;2023-10-13T08:53:19;16.20;99.90
52867;DHT22;38739;53.324;6.862;2023-10-13T08:56:11;16.20;99.90
52867;DHT22;38739;53.324;6.862;2023-10-13T08:58:45;16.30;99.90
52867;DHT22;38739;53.324;6.862;2023-10-13T09:01:36;16.30;99.90
52867;DHT22;38739;53.324;6.862;2023-10-13T09:04:06;16.40;99.90
52867;DHT22;38739;53.324;6.862;2023-10-13T09:06:44;16.40;99.90
52867;DHT22;38739;53.324;6.862;2023-10-13T09:09:23;16.50;99.90
52867;DHT22;38739;53.324;6.862;2023-10-13T09:11:55;16.50;99.90
52867;DHT22;38739;53.324;6.862;2023-10-13T09:14:38;16.60;99.90
52867;DHT22;38739;53.324;6.862;2023-10-13T09:17:08;16.60;99.90
52867;DHT22;38739;53.324;6.862;2023-10-13T09:19:53;16.70;99.90
52867;DHT22;38739;53.324;6.862;2023-10-13T09:22:27;16.80;99.90
52867;DHT22;38739;53.324;6.862;2023-10-13T09:24:55;16.80;99.90
52867;DHT22;38739;53.324;6.862;2023-10-13T09:27:25;16.80;99.90
52867;DHT22;38739;53.324;6.862;2023-10-13T09:30:00;16.90;99.90
52867;DHT22;38739;53.324;6.862;2023-10-13T09:32:47;17.10;99.90
52867;DHT22;38739;53.324;6.862;2023-10-13T09:35:21;17.20;99.90
52867;DHT22;38739;53.324;6.862;2023-10-13T09:37:53;17.40;99.90
52867;DHT22;38739;53.324;6.862;2023-10-13T09:40:22;17.50;99.90
52867;DHT22;38739;53.324;6.862;2023-10-13T09:42:53;17.60;99.90
52867;DHT22;38739;53.324;6.862;2023-10-13T09:45:27;17.60;99.90
52867;DHT22;38739;53.324;6.862;2023-10-13T09:47:55;17.70;99.90
52867;DHT22;38739;53.324;6.862;2023-10-13T09:50:29;17.80;99.90
52867;DHT22;38739;53.324;6.862;2023-10-13T09:53:00;17.90;99.90
52867;DHT22;38739;53.324;6.862;2023-10-13T09:55:34;18.00;99.90
52867;DHT22;38739;53.324;6.862;2023-10-13T09:58:05;18.10;99.90
52867;DHT22;38739;53.324;6.862;2023-10-13T10:00:56;18.20;99.90
52867;DHT22;38739;53.324;6.862;2023-10-13T10:03:52;18.20;99.90
52867;DHT22;38739;53.324;6.862;2023-10-13T10:06:35;18.40;99.90
52867;DHT22;38739;53.324;6.862;2023-10-13T10:09:11;18.70;99.90
52867;DHT22;38739;53.324;6.862;2023-10-13T10:17:13;18.70;99.90
52867;DHT22;38739;53.324;6.862;2023-10-13T10:19:50;18.70;99.90
52867;DHT22;38739;53.324;6.862;2023-10-13T10:22:29;18.70;99.90
52867;DHT22;38739;53.324;6.862;2023-10-13T10:25:05;18.70;99.90
52867;DHT22;38739;53.324;6.862;2023-10-13T10:27:57;18.70;99.90
52867;DHT22;38739;53.324;6.862;2023-10-13T10:30:27;18.70;99.90
52867;DHT22;38739;53.324;6.862;2023-10-13T10:32:57;18.60;99.90
52867;DHT22;38739;53.324;6.862;2023-10-13T10:35:27;18.60;99.90
52867;DHT22;38739;53.324;6.862;2023-10-13T10:38:13;18.60;99.90
52867;DHT22;38739;53.324;6.862;2023-10-13T10:41:00;18.60;99.90
52867;DHT22;38739;53.324;6.862;2023-10-13T10:43:35;18.60;99.90
52867;DHT22;38739;53.324;6.862;2023-10-13T10:46:11;18.50;99.90
52867;DHT22;38739;53.324;6.862;2023-10-13T10:48:37;18.60;99.90
52867;DHT22;38739;53.324;6.862;2023-10-13T10:51:13;18.80;99.90
52867;DHT22;38739;53.324;6.862;2023-10-13T10:53:49;18.90;99.90
52867;DHT22;38739;53.324;6.862;2023-10-13T10:56:18;19.00;99.90
52867;DHT22;38739;53.324;6.862;2023-10-13T10:58:59;19.10;99.90
52867;DHT22;38739;53.324;6.862;2023-10-13T11:01:31;19.10;99.90
52867;DHT22;38739;53.324;6.862;2023-10-13T11:04:05;19.20;99.90
52867;DHT22;38739;53.324;6.862;2023-10-13T11:06:37;19.20;99.90
52867;DHT22;38739;53.324;6.862;2023-10-13T11:09:11;19.20;99.90
52867;DHT22;38739;53.324;6.862;2023-10-13T11:12:14;19.10;99.90
52867;DHT22;38739;53.324;6.862;2023-10-13T11:15:06;19.20;99.90
52867;DHT22;38739;53.324;6.862;2023-10-13T11:17:51;19.50;99.90
52867;DHT22;38739;53.324;6.862;2023-10-13T11:20:20;20.70;99.90
52867;DHT22;38739;53.324;6.862;2023-10-13T11:23:12;21.40;99.90
52867;DHT22;38739;53.324;6.862;2023-10-13T11:25:39;21.50;99.90
52867;DHT22;38739;53.324;6.862;2023-10-13T11:28:15;21.40;99.90
52867;DHT22;38739;53.324;6.862;2023-10-13T11:30:46;21.10;99.90
52867;DHT22;38739;53.324;6.862;2023-10-13T11:33:16;20.70;99.90
52867;DHT22;38739;53.324;6.862;2023-10-13T11:35:58;20.50;99.90
52867;DHT22;38739;53.324;6.862;2023-10-13T11:38:33;20.30;99.90
52867;DHT22;38739;53.324;6.862;2023-10-13T11:41:11;20.10;99.90
52867;DHT22;38739;53.324;6.862;2023-10-13T11:43:51;20.00;99.90
52867;DHT22;38739;53.324;6.862;2023-10-13T11:46:22;20.00;99.90
52867;DHT22;38739;53.324;6.862;2023-10-13T11:49:00;20.00;99.90
52867;DHT22;38739;53.324;6.862;2023-10-13T11:51:31;20.10;99.90
52867;DHT22;38739;53.324;6.862;2023-10-13T11:54:00;20.10;99.90
52867;DHT22;38739;53.324;6.862;2023-10-13T11:56:26;20.00;99.90
52867;DHT22;38739;53.324;6.862;2023-10-13T11:58:52;20.00;99.90
52867;DHT22;38739;53.324;6.862;2023-10-13T12:01:18;19.90;99.90
52867;DHT22;38739;53.324;6.862;2023-10-13T12:03:45;19.80;99.90
52867;DHT22;38739;53.324;6.862;2023-10-13T12:06:30;19.70;99.90
52867;DHT22;38739;53.324;6.862;2023-10-13T12:09:06;19.60;99.90
52867;DHT22;38739;53.324;6.862;2023-10-13T12:11:45;19.50;99.90
52867;DHT22;38739;53.324;6.862;2023-10-13T12:14:17;19.40;99.90
52867;DHT22;38739;53.324;6.862;2023-10-13T12:17:05;19.30;99.90
52867;DHT22;38739;53.324;6.862;2023-10-13T12:19:36;19.20;99.90
52867;DHT22;38739;53.324;6.862;2023-10-13T12:22:04;19.20;99.90
52867;DHT22;38739;53.324;6.862;2023-10-13T12:24:33;19.20;99.90
52867;DHT22;38739;53.324;6.862;2023-10-13T12:27:02;19.20;99.90
52867;DHT22;38739;53.324;6.862;2023-10-13T12:29:28;19.20;99.90
52867;DHT22;38739;53.324;6.862;2023-10-13T12:31:58;19.30;99.90
52867;DHT22;38739;53.324;6.862;2023-10-13T12:34:40;19.30;99.90
52867;DHT22;38739;53.324;6.862;2023-10-13T12:37:23;19.40;99.90
52867;DHT22;38739;53.324;6.862;2023-10-13T12:40:05;19.40;99.90
52867;DHT22;38739;53.324;6.862;2023-10-13T12:42:50;19.50;99.90
52867;DHT22;38739;53.324;6.862;2023-10-13T12:45:39;19.50;99.90
52867;DHT22;38739;53.324;6.862;2023-10-13T12:48:23;19.50;99.90
52867;DHT22;38739;53.324;6.862;2023-10-13T12:51:07;19.50;99.90
52867;DHT22;38739;53.324;6.862;2023-10-13T12:53:49;19.50;99.90
52867;DHT22;38739;53.324;6.862;2023-10-13T12:56:15;19.40;99.90
52867;DHT22;38739;53.324;6.862;2023-10-13T12:58:41;19.30;99.90
52867;DHT22;38739;53.324;6.862;2023-10-13T13:01:07;19.20;99.90
52867;DHT22;38739;53.324;6.862;2023-10-13T13:03:34;19.20;99.90
52867;DHT22;38739;53.324;6.862;2023-10-13T13:06:00;19.20;99.90
52867;DHT22;38739;53.324;6.862;2023-10-13T13:08:33;19.10;99.90
52867;DHT22;38739;53.324;6.862;2023-10-13T13:11:01;19.00;99.90
52867;DHT22;38739;53.324;6.862;2023-10-13T13:13:28;19.00;99.90
52867;DHT22;38739;53.324;6.862;2023-10-13T13:15:54;18.90;99.90
52867;DHT22;38739;53.324;6.862;2023-10-13T13:18:19;18.90;99.90
52867;DHT22;38739;53.324;6.862;2023-10-13T13:20:45;18.80;99.90
52867;DHT22;38739;53.324;6.862;2023-10-13T13:23:21;18.80;99.90
52867;DHT22;38739;53.324;6.862;2023-10-13T13:25:47;18.70;99.90
52867;DHT22;38739;53.324;6.862;2023-10-13T13:28:14;18.70;99.90
52867;DHT22;38739;53.324;6.862;2023-10-13T13:30:44;18.60;99.90
52867;DHT22;38739;53.324;6.862;2023-10-13T13:33:11;18.60;99.90
52867;DHT22;38739;53.324;6.862;2023-10-13T13:35:40;18.50;99.90
52867;DHT22;38739;53.324;6.862;2023-10-13T13:38:09;18.50;99.90
52867;DHT22;38739;53.324;6.862;2023-10-13T13:40:55;18.50;99.90
52867;DHT22;38739;53.324;6.862;2023-10-13T13:43:22;18.40;99.90
52867;DHT22;38739;53.324;6.862;2023-10-13T13:46:00;18.40;99.90
52867;DHT22;38739;53.324;6.862;2023-10-13T13:48:29;18.40;99.90
52867;DHT22;38739;53.324;6.862;2023-10-13T13:50:55;18.40;99.90
52867;DHT22;38739;53.324;6.862;2023-10-13T13:53:31;18.30;99.90
52867;DHT22;38739;53.324;6.862;2023-10-13T13:56:01;18.30;99.90
52867;DHT22;38739;53.324;6.862;2023-10-13T13:58:28;18.30;99.90
52867;DHT22;38739;53.324;6.862;2023-10-13T14:01:02;18.30;99.90
52867;DHT22;38739;53.324;6.862;2023-10-13T14:03:45;18.30;99.90
52867;DHT22;38739;53.324;6.862;2023-10-13T14:06:18;18.30;99.90
52867;DHT22;38739;53.324;6.862;2023-10-13T14:08:47;18.30;99.90
52867;DHT22;38739;53.324;6.862;2023-10-13T14:11:24;18.30;99.90
52867;DHT22;38739;53.324;6.862;2023-10-13T14:14:06;18.30;99.90
52867;DHT22;38739;53.324;6.862;2023-10-13T14:16:59;18.30;99.90
52867;DHT22;38739;53.324;6.862;2023-10-13T14:19:35;18.30;99.90
52867;DHT22;38739;53.324;6.862;2023-10-13T14:22:05;18.40;99.90
52867;DHT22;38739;53.324;6.862;2023-10-13T14:24:34;18.40;99.90
52867;DHT22;38739;53.324;6.862;2023-10-13T14:27:01;18.40;99.90
52867;DHT22;38739;53.324;6.862;2023-10-13T14:29:54;18.40;99.90
52867;DHT22;38739;53.324;6.862;2023-10-13T14:32:20;18.50;99.90
52867;DHT22;38739;53.324;6.862;2023-10-13T14:34:50;18.50;99.90
52867;DHT22;38739;53.324;6.862;2023-10-13T14:37:20;18.50;99.90
52867;DHT22;38739;53.324;6.862;2023-10-13T14:39:55;18.50;99.90
52867;DHT22;38739;53.324;6.862;2023-10-13T14:42:27;18.50;99.90
52867;DHT22;38739;53.324;6.862;2023-10-13T14:44:53;18.50;99.90
52867;DHT22;38739;53.324;6.862;2023-10-13T14:47:23;18.50;99.90
52867;DHT22;38739;53.324;6.862;2023-10-13T14:49:53;18.50;99.90
52867;DHT22;38739;53.324;6.862;2023-10-13T14:52:27;18.50;99.90
52867;DHT22;38739;53.324;6.862;2023-10-13T14:55:00;18.50;99.90
52867;DHT22;38739;53.324;6.862;2023-10-13T14:57:25;18.50;99.90
52867;DHT22;38739;53.324;6.862;2023-10-13T14:59:55;18.50;99.90
52867;DHT22;38739;53.324;6.862;2023-10-13T15:02:21;18.40;99.90
52867;DHT22;38739;53.324;6.862;2023-10-13T15:04:47;18.40;99.90
52867;DHT22;38739;53.324;6.862;2023-10-13T15:07:14;18.40;99.90
52867;DHT22;38739;53.324;6.862;2023-10-13T15:09:45;18.40;99.90
52867;DHT22;38739;53.324;6.862;2023-10-13T15:12:11;18.30;99.90
52867;DHT22;38739;53.324;6.862;2023-10-13T15:14:38;18.30;99.90
52867;DHT22;38739;53.324;6.862;2023-10-13T15:17:04;18.30;99.90
52867;DHT22;38739;53.324;6.862;2023-10-13T15:19:32;18.30;99.90
52867;DHT22;38739;53.324;6.862;2023-10-13T15:22:02;18.30;99.90
52867;DHT22;38739;53.324;6.862;2023-10-13T15:24:32;18.20;99.90
52867;DHT22;38739;53.324;6.862;2023-10-13T15:27:01;18.20;99.90
52867;DHT22;38739;53.324;6.862;2023-10-13T15:29:27;18.10;99.90
52867;DHT22;38739;53.324;6.862;2023-10-13T15:32:01;18.10;99.90
52867;DHT22;38739;53.324;6.862;2023-10-13T15:34:30;18.10;99.90
52867;DHT22;38739;53.324;6.862;2023-10-13T15:36:58;18.10;99.90
52867;DHT22;38739;53.324;6.862;2023-10-13T15:39:25;18.00;99.90
52867;DHT22;38739;53.324;6.862;2023-10-13T15:41:56;18.00;99.90
52867;DHT22;38739;53.324;6.862;2023-10-13T15:44:27;17.90;99.90
52867;DHT22;38739;53.324;6.862;2023-10-13T15:46:56;17.90;99.90
52867;DHT22;38739;53.324;6.862;2023-10-13T15:49:23;17.90;99.90
52867;DHT22;38739;53.324;6.862;2023-10-13T15:51:49;17.90;99.90
52867;DHT22;38739;53.324;6.862;2023-10-13T15:54:16;17.80;99.90
52867;DHT22;38739;53.324;6.862;2023-10-13T15:56:43;17.80;99.90
52867;DHT22;38739;53.324;6.862;2023-10-13T15:59:12;17.80;99.90
52867;DHT22;38739;53.324;6.862;2023-10-13T16:01:38;17.80;99.90
52867;DHT22;38739;53.324;6.862;2023-10-13T16:04:06;17.80;99.90
52867;DHT22;38739;53.324;6.862;2023-10-13T16:06:45;17.80;99.90
52867;DHT22;38739;53.324;6.862;2023-10-13T16:09:13;17.80;99.90
52867;DHT22;38739;53.324;6.862;2023-10-13T16:11:45;17.80;99.90
52867;DHT22;38739;53.324;6.862;2023-10-13T16:14:12;17.80;99.90
52867;DHT22;38739;53.324;6.862;2023-10-13T16:16:48;17.80;99.90
52867;DHT22;38739;53.324;6.862;2023-10-13T16:19:18;17.70;99.90